Time;durP1;ratioP1;P1;durP2;ratioP2;P2;SDS_P1;SDS_P2;PMS_P1;PMS_P2;Temp;Humidity;BMP_temperature;BMP_pressure;BME280_temperature;BME280_humidity;BME280_pressure;Samples;Min_cycle;Max_cycle;Signal;HPM_P1;HPM_P2
2022/09/04 00:00:48;;;;;;;2.90;0.50;;;16.90;99.90;;;;;;5052518;28;20254;-69
2022/09/04 00:03:32;;;;;;;4.75;0.57;;;17.00;99.90;;;;;;5053780;28;20186;-68
2022/09/04 00:06:08;;;;;;;2.47;0.52;;;17.10;99.90;;;;;;5053940;28;20232;-68
2022/09/04 00:08:54;;;;;;;2.47;0.50;;;17.10;99.90;;;;;;5054208;28;20212;-68
2022/09/04 00:11:43;;;;;;;1.92;0.40;;;17.30;99.90;;;;;;5047618;28;20216;-69
2022/09/04 00:14:19;;;;;;;3.90;0.60;;;17.40;99.90;;;;;;5033909;28;20236;-68
2022/09/04 00:16:57;;;;;;;2.10;0.40;;;17.40;99.90;;;;;;5033700;28;20561;-70
2022/09/04 00:19:38;;;;;;;3.55;0.40;;;17.40;99.90;;;;;;5033884;28;20675;-69
2022/09/04 00:22:20;;;;;;;1.70;0.47;;;17.40;99.90;;;;;;5033561;28;20190;-70
2022/09/04 00:24:57;;;;;;;6.85;0.70;;;17.40;99.90;;;;;;5034073;28;20629;-69
2022/09/04 00:27:30;;;;;;;3.15;0.68;;;17.40;99.90;;;;;;5033710;28;20217;-68
2022/09/04 00:30:06;;;;;;;2.70;0.50;;;17.40;99.90;;;;;;5033769;28;20190;-69
2022/09/04 00:32:44;;;;;;;3.95;0.50;;;17.40;99.90;;;;;;5033488;28;20201;-68
2022/09/04 00:35:21;;;;;;;4.75;0.60;;;17.50;99.90;;;;;;5034237;28;20186;-69
2022/09/04 00:37:59;;;;;;;3.30;0.70;;;17.60;99.90;;;;;;5044533;28;20222;-69
2022/09/04 00:40:34;;;;;;;3.60;0.70;;;17.80;99.90;;;;;;5033570;28;20193;-68
2022/09/04 00:43:41;;;;;;;4.75;0.80;;;17.60;99.90;;;;;;5049476;28;20189;-69
2022/09/04 00:46:43;;;;;;;2.83;0.60;;;17.30;99.90;;;;;;5053019;28;20211;-69
2022/09/04 00:49:36;;;;;;;3.25;0.98;;;16.90;99.90;;;;;;5053377;28;20201;-68
2022/09/04 00:52:23;;;;;;;3.60;0.77;;;16.70;99.90;;;;;;5053239;28;20193;-68
2022/09/04 00:55:11;;;;;;;5.10;0.90;;;16.70;99.90;;;;;;5040448;28;20186;-69
2022/09/04 00:58:02;;;;;;;2.13;0.60;;;16.80;99.90;;;;;;5033333;28;20198;-69
2022/09/04 01:00:33;;;;;;;3.10;0.65;;;16.80;99.90;;;;;;5033114;28;20568;-69
2022/09/04 01:03:31;;;;;;;3.85;0.70;;;16.90;99.90;;;;;;5033287;28;20630;-69
2022/09/04 01:06:36;;;;;;;3.20;0.60;;;17.20;99.90;;;;;;5033284;28;20562;-68
2022/09/04 01:09:35;;;;;;;4.30;0.75;;;17.40;99.90;;;;;;5023876;28;20210;-69
2022/09/04 01:12:25;;;;;;;3.55;0.80;;;17.50;99.90;;;;;;5015720;28;20654;-68
2022/09/04 01:15:01;;;;;;;8.38;0.93;;;17.60;99.90;;;;;;5032866;28;20198;-69
2022/09/04 01:17:37;;;;;;;5.60;0.73;;;17.60;99.90;;;;;;5033529;28;20225;-70
2022/09/04 01:20:18;;;;;;;1.52;0.65;;;17.80;99.90;;;;;;5033076;28;20185;-69
2022/09/04 01:23:04;;;;;;;4.05;0.80;;;18.10;99.90;;;;;;5033082;28;20197;-69
2022/09/04 01:25:53;;;;;;;3.50;0.80;;;18.00;99.90;;;;;;5033066;28;20198;-69
2022/09/04 01:28:31;;;;;;;4.18;0.70;;;17.90;99.90;;;;;;5033247;28;20268;-69
2022/09/04 01:31:09;;;;;;;6.32;1.17;;;17.80;99.90;;;;;;5042510;28;20207;-68
2022/09/04 01:33:53;;;;;;;1.50;0.60;;;18.00;99.90;;;;;;5054109;28;20590;-69
2022/09/04 01:36:37;;;;;;;4.70;0.90;;;18.20;99.90;;;;;;5049542;28;20217;-69
2022/09/04 01:39:08;;;;;;;4.35;0.70;;;18.20;99.90;;;;;;5053465;28;20225;-68
2022/09/04 01:41:45;;;;;;;3.70;0.90;;;18.10;99.90;;;;;;5052541;28;20194;-69
2022/09/04 01:44:16;;;;;;;6.00;0.90;;;18.10;99.90;;;;;;5036557;28;20194;-68
2022/09/04 01:47:03;;;;;;;6.97;0.98;;;18.20;99.90;;;;;;5036589;28;20245;-70
2022/09/04 01:49:40;;;;;;;4.00;0.82;;;18.20;99.90;;;;;;5036673;28;20194;-69
2022/09/04 01:52:24;;;;;;;4.53;0.70;;;18.20;99.90;;;;;;5036553;28;20190;-69
2022/09/04 01:55:00;;;;;;;4.18;0.88;;;18.30;99.90;;;;;;5049364;28;20676;-69
2022/09/04 01:57:52;;;;;;;1.30;0.43;;;18.40;99.90;;;;;;5056502;28;20193;-69
2022/09/04 02:00:24;;;;;;;2.22;0.70;;;18.40;99.90;;;;;;5056208;28;20196;-69
2022/09/04 02:03:03;;;;;;;2.78;0.70;;;18.30;99.90;;;;;;5056419;28;20194;-69
2022/09/04 02:05:50;;;;;;;4.47;0.73;;;18.20;99.90;;;;;;5056372;28;20194;-68
2022/09/04 02:08:36;;;;;;;4.57;0.90;;;18.20;99.90;;;;;;5056230;28;20225;-67
2022/09/04 02:11:13;;;;;;;3.83;0.50;;;18.30;99.90;;;;;;5045144;28;20193;-69
2022/09/04 02:14:01;;;;;;;6.45;1.13;;;18.40;99.90;;;;;;5040355;28;20194;-71
2022/09/04 02:16:41;;;;;;;5.10;0.90;;;18.50;99.90;;;;;;5056118;28;20681;-71
2022/09/04 02:19:23;;;;;;;2.45;0.70;;;18.50;99.90;;;;;;5044006;28;20217;-71
2022/09/04 02:22:03;;;;;;;7.10;0.82;;;18.40;99.90;;;;;;5042311;28;20201;-73
2022/09/04 02:24:42;;;;;;;4.22;0.60;;;18.40;99.90;;;;;;5047070;28;20273;-72
2022/09/04 02:27:18;;;;;;;6.05;0.80;;;18.40;99.90;;;;;;5042583;28;20549;-72
2022/09/04 02:29:58;;;;;;;3.92;0.70;;;18.50;99.90;;;;;;5048388;28;20203;-72
2022/09/04 02:32:37;;;;;;;6.15;0.95;;;18.50;99.90;;;;;;5044786;28;20200;-70
2022/09/04 02:35:17;;;;;;;4.88;0.77;;;18.40;99.90;;;;;;5044594;28;20600;-71
2022/09/04 02:38:01;;;;;;;4.25;0.70;;;18.30;99.90;;;;;;5043294;28;20234;-72
2022/09/04 02:40:41;;;;;;;4.53;0.80;;;18.40;99.90;;;;;;5043401;28;20200;-71
2022/09/04 02:43:28;;;;;;;7.90;0.77;;;18.20;99.90;;;;;;5046233;28;20183;-71
2022/09/04 02:46:07;;;;;;;4.95;0.93;;;18.00;99.90;;;;;;5044771;28;20197;-72
2022/09/04 02:48:56;;;;;;;4.43;0.60;;;17.90;99.90;;;;;;5044215;28;20223;-72
2022/09/04 02:51:39;;;;;;;6.00;1.00;;;18.10;99.90;;;;;;5044252;28;20221;-72
2022/09/04 02:54:18;;;;;;;4.90;0.77;;;18.20;99.90;;;;;;5045490;28;20182;-72
2022/09/04 02:56:58;;;;;;;5.95;0.70;;;18.00;99.90;;;;;;5039337;28;20188;-71
2022/09/04 02:59:42;;;;;;;4.28;0.80;;;17.90;99.90;;;;;;5050198;28;20190;-72
2022/09/04 03:02:23;;;;;;;5.47;0.88;;;18.00;99.90;;;;;;5041241;28;20182;-72
2022/09/04 03:05:01;;;;;;;5.75;1.00;;;18.20;99.90;;;;;;5044100;28;20190;-71
2022/09/04 03:07:35;;;;;;;5.75;1.10;;;18.10;99.90;;;;;;5046192;28;20217;-72
2022/09/04 03:10:13;;;;;;;5.97;0.85;;;17.90;99.90;;;;;;5035142;28;20641;-71
2022/09/04 03:12:49;;;;;;;8.48;0.98;;;17.80;99.90;;;;;;5042539;28;20193;-71
2022/09/04 03:15:27;;;;;;;4.72;1.00;;;17.60;99.90;;;;;;5041543;28;20198;-72
2022/09/04 03:18:06;;;;;;;2.13;0.70;;;17.60;99.90;;;;;;5039967;28;20194;-71
2022/09/04 03:20:42;;;;;;;3.58;0.80;;;17.80;99.90;;;;;;5044844;28;20190;-72
2022/09/04 03:23:19;;;;;;;7.22;1.27;;;17.80;99.90;;;;;;5044493;28;20660;-72
2022/09/04 03:26:19;;;;;;;3.28;0.80;;;17.60;99.90;;;;;;5043245;28;20194;-71
2022/09/04 03:29:10;;;;;;;5.45;1.00;;;17.40;99.90;;;;;;5042588;28;20213;-71
2022/09/04 03:31:49;;;;;;;3.95;0.70;;;17.30;99.90;;;;;;5045813;28;20190;-71
2022/09/04 03:34:38;;;;;;;3.67;0.77;;;17.30;99.90;;;;;;5042380;28;20564;-72
2022/09/04 03:37:24;;;;;;;3.78;0.70;;;17.40;99.90;;;;;;5045276;28;20209;-71
2022/09/04 03:40:05;;;;;;;8.02;0.90;;;17.50;99.90;;;;;;5042120;28;20214;-72
2022/09/04 03:42:43;;;;;;;4.20;0.80;;;17.60;99.90;;;;;;5046307;28;20190;-70
2022/09/04 03:45:30;;;;;;;6.05;0.90;;;17.60;99.90;;;;;;5045068;28;20186;-71
2022/09/04 03:48:13;;;;;;;4.40;1.00;;;17.50;99.90;;;;;;5043345;28;20221;-72
2022/09/04 03:50:55;;;;;;;5.20;1.05;;;17.60;99.90;;;;;;5038361;28;20190;-71
2022/09/04 03:53:37;;;;;;;4.45;0.90;;;17.50;99.90;;;;;;5042920;28;20190;-71
2022/09/04 03:56:38;;;;;;;3.65;0.80;;;17.40;99.90;;;;;;5038238;28;20197;-71
2022/09/04 03:59:12;;;;;;;4.72;0.88;;;17.20;99.90;;;;;;5044207;28;20560;-71
2022/09/04 04:01:54;;;;;;;7.57;1.13;;;17.20;99.90;;;;;;5041993;28;20190;-71
2022/09/04 04:04:51;;;;;;;4.05;0.60;;;17.40;99.90;;;;;;5041723;28;20190;-71
2022/09/04 04:07:38;;;;;;;5.60;1.00;;;17.50;99.90;;;;;;5046316;28;20204;-71
2022/09/04 04:10:23;;;;;;;5.97;1.30;;;17.60;99.90;;;;;;5041177;28;20194;-71
2022/09/04 04:13:22;;;;;;;7.53;1.00;;;17.60;99.90;;;;;;5054042;28;20193;-72
2022/09/04 04:16:10;;;;;;;7.03;1.10;;;16.90;99.90;;;;;;5043256;28;20199;-71
2022/09/04 04:19:00;;;;;;;9.38;1.50;;;16.50;99.90;;;;;;5046365;28;20193;-70
2022/09/04 04:21:49;;;;;;;4.35;1.10;;;16.30;99.90;;;;;;5048588;28;20562;-71
2022/09/04 04:24:53;;;;;;;7.57;1.20;;;16.30;99.90;;;;;;5041375;28;20281;-72
2022/09/04 04:27:49;;;;;;;7.25;1.50;;;16.30;99.90;;;;;;5039356;28;20226;-71
2022/09/04 04:30:21;;;;;;;5.00;1.27;;;16.40;99.90;;;;;;5041187;28;20269;-71
2022/09/04 04:33:29;;;;;;;7.88;1.65;;;16.40;99.90;;;;;;5048596;28;20201;-71
2022/09/04 04:36:08;;;;;;;6.32;1.10;;;16.40;99.90;;;;;;4971651;28;20227;-71
2022/09/04 04:39:08;;;;;;;7.32;1.00;;;16.20;99.90;;;;;;4971702;28;20232;-70
2022/09/04 04:42:07;;;;;;;6.43;1.02;;;16.10;99.90;;;;;;5029291;28;20217;-69
2022/09/04 04:48:13;;;;;;;3.90;1.05;;;15.80;99.90;;;;;;5041305;28;20213;-71
2022/09/04 04:50:50;;;;;;;7.82;1.20;;;15.70;99.90;;;;;;5040037;28;20659;-73
2022/09/04 04:53:27;;;;;;;5.72;1.35;;;15.70;99.90;;;;;;5040873;28;20275;-71
2022/09/04 04:56:02;;;;;;;8.13;1.30;;;15.60;99.90;;;;;;5044354;28;20185;-71
2022/09/04 04:58:54;;;;;;;7.50;1.45;;;15.60;99.90;;;;;;5044479;28;20248;-71
2022/09/04 05:01:44;;;;;;;4.22;1.52;;;15.50;99.90;;;;;;5041638;28;20202;-72
2022/09/04 05:04:28;;;;;;;6.45;1.00;;;15.60;99.90;;;;;;5041480;28;20201;-71
2022/09/04 05:07:04;;;;;;;6.40;1.20;;;15.70;99.90;;;;;;5044063;28;20649;-71
2022/09/04 05:09:46;;;;;;;7.40;1.10;;;15.80;99.90;;;;;;5047239;28;20215;-71
2022/09/04 05:12:29;;;;;;;7.53;1.08;;;15.90;99.90;;;;;;5048464;28;20189;-71
2022/09/04 05:15:09;;;;;;;4.60;1.00;;;16.00;99.90;;;;;;5042277;28;20659;-71
2022/09/04 05:17:48;;;;;;;4.70;1.15;;;16.00;99.90;;;;;;5051851;28;20194;-70
2022/09/04 05:20:30;;;;;;;6.28;1.70;;;16.10;99.90;;;;;;5038255;28;20198;-72
2022/09/04 05:23:14;;;;;;;8.02;1.17;;;16.10;99.90;;;;;;5045914;28;20194;-71
2022/09/04 05:25:52;;;;;;;5.47;1.00;;;16.10;99.90;;;;;;5044746;28;20190;-72
2022/09/04 05:28:34;;;;;;;3.72;0.85;;;16.20;99.90;;;;;;5044696;28;20216;-71
2022/09/04 05:31:16;;;;;;;8.18;1.00;;;16.20;99.90;;;;;;5044740;28;20201;-72
2022/09/04 05:33:57;;;;;;;7.55;1.10;;;16.30;99.90;;;;;;5044991;28;20274;-72
2022/09/04 05:36:36;;;;;;;6.28;0.90;;;16.30;99.90;;;;;;5048244;28;20217;-72
2022/09/04 05:39:15;;;;;;;3.42;1.00;;;16.30;99.90;;;;;;5045671;28;20225;-71
2022/09/04 05:42:01;;;;;;;5.05;1.00;;;16.30;99.90;;;;;;5044775;28;20269;-71
2022/09/04 05:44:47;;;;;;;7.05;0.90;;;16.40;99.90;;;;;;5048034;28;20193;-69
2022/09/04 05:47:31;;;;;;;7.45;1.00;;;16.50;99.90;;;;;;5051131;28;20186;-71
2022/09/04 05:50:18;;;;;;;5.63;1.00;;;16.60;99.90;;;;;;5050091;28;20199;-72
2022/09/04 05:53:16;;;;;;;4.15;0.75;;;16.70;99.90;;;;;;5044967;28;20199;-71
2022/09/04 05:56:15;;;;;;;7.03;0.88;;;16.70;99.90;;;;;;5041989;28;20216;-72
2022/09/04 05:59:03;;;;;;;3.55;0.77;;;16.80;99.90;;;;;;5004186;28;20673;-70
2022/09/04 06:01:54;;;;;;;6.32;0.80;;;16.80;99.90;;;;;;5047484;28;20277;-71
2022/09/04 06:04:58;;;;;;;5.60;0.98;;;16.80;99.90;;;;;;5047360;28;20198;-71
2022/09/04 06:07:38;;;;;;;4.20;0.80;;;16.80;99.90;;;;;;5043319;28;20564;-71
2022/09/04 06:10:18;;;;;;;4.53;0.80;;;16.70;99.90;;;;;;5049215;28;20630;-71
2022/09/04 06:13:08;;;;;;;5.25;0.80;;;16.70;99.90;;;;;;5045529;28;20193;-70
2022/09/04 06:15:51;;;;;;;3.03;0.73;;;16.70;99.90;;;;;;5043530;28;20201;-71
2022/09/04 06:18:55;;;;;;;8.30;1.10;;;16.70;99.90;;;;;;5044011;28;20190;-71
2022/09/04 06:21:58;;;;;;;4.55;1.10;;;16.60;99.90;;;;;;5029277;28;20193;-71
2022/09/04 06:24:45;;;;;;;8.07;1.10;;;16.60;99.90;;;;;;5044851;28;20224;-70
2022/09/04 06:27:38;;;;;;;4.38;0.85;;;16.60;99.90;;;;;;5046674;28;20195;-71
2022/09/04 06:30:10;;;;;;;5.60;1.23;;;16.60;99.90;;;;;;5048014;28;20213;-70
2022/09/04 06:33:03;;;;;;;7.68;1.08;;;16.60;99.90;;;;;;5046670;28;20522;-71
2022/09/04 06:35:53;;;;;;;5.90;1.30;;;16.60;99.90;;;;;;5044214;28;20588;-68
2022/09/04 06:38:40;;;;;;;5.05;1.10;;;16.40;99.90;;;;;;5043403;28;20311;-68
2022/09/04 06:41:27;;;;;;;8.35;1.10;;;16.30;99.90;;;;;;5040533;28;20192;-68
2022/09/04 06:44:06;;;;;;;4.68;0.93;;;16.00;99.90;;;;;;5040722;28;20615;-68
2022/09/04 06:46:44;;;;;;;7.10;1.20;;;15.90;99.90;;;;;;5046666;28;20194;-69
2022/09/04 06:49:23;;;;;;;8.95;1.25;;;15.80;99.90;;;;;;5042343;28;20690;-69
2022/09/04 06:52:15;;;;;;;5.22;1.08;;;15.70;99.90;;;;;;5047788;28;20189;-68
2022/09/04 06:54:57;;;;;;;7.28;1.30;;;15.60;99.90;;;;;;5040108;28;20186;-69
2022/09/04 06:57:50;;;;;;;4.47;1.10;;;15.60;99.90;;;;;;5046622;28;20277;-68
2022/09/04 07:00:22;;;;;;;7.65;1.23;;;15.50;99.90;;;;;;5019420;28;20208;-68
2022/09/04 07:03:13;;;;;;;5.93;0.95;;;15.50;99.90;;;;;;5047305;28;20196;-68
2022/09/04 07:05:55;;;;;;;4.25;0.90;;;15.50;99.90;;;;;;5035293;28;20198;-68
2022/09/04 07:08:40;;;;;;;4.68;1.00;;;15.40;99.90;;;;;;5049049;28;20267;-68
2022/09/04 07:11:22;;;;;;;5.55;0.80;;;15.40;99.90;;;;;;5055071;28;20194;-68
2022/09/04 07:14:18;;;;;;;3.13;0.70;;;15.30;99.90;;;;;;5055289;28;20197;-68
2022/09/04 07:16:59;;;;;;;3.63;1.15;;;15.10;99.90;;;;;;5054709;28;20259;-68
2022/09/04 07:19:57;;;;;;;2.10;0.68;;;14.90;99.90;;;;;;5050182;28;20190;-68
2022/09/04 07:23:03;;;;;;;4.28;0.80;;;14.80;99.90;;;;;;5034879;28;20202;-68
2022/09/04 07:25:45;;;;;;;2.72;0.80;;;14.70;99.90;;;;;;5004696;28;20260;-68
2022/09/04 07:28:46;;;;;;;3.22;0.82;;;14.60;99.90;;;;;;5034885;28;20190;-68
2022/09/04 07:31:25;;;;;;;3.47;0.60;;;14.60;99.90;;;;;;5033926;28;20223;-68
2022/09/04 07:34:07;;;;;;;2.30;0.70;;;14.60;99.90;;;;;;5034925;28;20194;-69
2022/09/04 07:36:43;;;;;;;2.75;0.77;;;14.50;99.90;;;;;;5043999;28;20228;-68
2022/09/04 07:39:20;;;;;;;7.25;0.82;;;14.50;99.90;;;;;;5035823;28;20291;-71
2022/09/04 07:42:00;;;;;;;3.58;1.00;;;14.50;99.90;;;;;;5041155;28;20189;-71
2022/09/04 07:44:40;;;;;;;3.22;0.70;;;14.50;99.90;;;;;;5054402;28;20201;-71
2022/09/04 07:47:18;;;;;;;3.22;0.70;;;14.50;99.90;;;;;;5054185;28;20555;-71
2022/09/04 07:50:04;;;;;;;8.13;0.93;;;14.50;99.90;;;;;;5054325;28;20588;-72
2022/09/04 07:52:59;;;;;;;2.72;0.90;;;14.50;99.90;;;;;;5054288;28;20240;-72
2022/09/04 07:55:39;;;;;;;3.60;0.85;;;14.40;99.90;;;;;;5035355;28;20199;-71
2022/09/04 07:58:50;;;;;;;2.95;0.93;;;14.40;99.90;;;;;;5034273;28;20201;-71
2022/09/04 08:01:43;;;;;;;3.92;0.90;;;14.40;99.90;;;;;;5034111;28;20198;-71
2022/09/04 08:04:36;;;;;;;5.22;1.23;;;14.30;99.90;;;;;;5034192;28;20200;-71
2022/09/04 08:07:14;;;;;;;3.58;1.10;;;14.30;99.90;;;;;;5033931;28;20209;-72
2022/09/04 08:10:01;;;;;;;3.58;1.13;;;14.30;99.90;;;;;;5034107;28;20221;-72
2022/09/04 08:12:50;;;;;;;6.32;1.48;;;14.30;99.90;;;;;;5034034;28;20194;-68
2022/09/04 08:15:23;;;;;;;6.25;1.10;;;14.30;99.90;;;;;;5033692;28;20199;-69
2022/09/04 08:18:20;;;;;;;2.78;0.95;;;14.30;99.90;;;;;;5034221;28;20546;-69
2022/09/04 08:21:03;;;;;;;4.10;1.10;;;14.30;99.90;;;;;;5029896;28;20198;-69
2022/09/04 08:24:05;;;;;;;4.40;1.13;;;14.20;99.90;;;;;;5033827;28;20190;-68
2022/09/04 08:26:42;;;;;;;5.28;1.25;;;14.20;99.90;;;;;;5033804;28;20190;-69
2022/09/04 08:29:30;;;;;;;6.47;1.17;;;14.10;99.90;;;;;;5033666;28;20224;-68
2022/09/04 08:32:13;;;;;;;6.13;1.40;;;14.10;99.90;;;;;;5052269;28;20531;-69
2022/09/04 08:35:15;;;;;;;3.28;1.20;;;14.10;99.90;;;;;;5053540;28;20189;-69
2022/09/04 08:38:00;;;;;;;4.72;1.50;;;14.00;99.90;;;;;;5044532;28;20218;-70
2022/09/04 08:40:58;;;;;;;7.00;1.55;;;14.00;99.90;;;;;;5033574;28;20197;-69
2022/09/04 08:43:45;;;;;;;4.90;1.80;;;14.00;99.90;;;;;;5021572;28;20208;-69
2022/09/04 08:46:55;;;;;;;5.07;1.40;;;14.00;99.90;;;;;;5033350;28;20684;-68
2022/09/04 08:50:07;;;;;;;3.72;1.38;;;14.00;99.90;;;;;;5033496;28;20642;-69
2022/09/04 08:53:23;;;;;;;5.25;1.30;;;14.00;99.90;;;;;;5033524;28;20201;-69
2022/09/04 08:56:05;;;;;;;5.63;1.40;;;14.00;99.90;;;;;;5033321;28;20577;-69
2022/09/04 08:59:10;;;;;;;5.07;1.48;;;14.00;99.90;;;;;;5033200;28;20236;-69
2022/09/04 09:02:12;;;;;;;4.55;1.63;;;14.00;99.90;;;;;;5033306;28;20576;-70
2022/09/04 09:05:11;;;;;;;7.30;1.80;;;13.90;99.90;;;;;;4999033;28;20576;-68
2022/09/04 09:08:32;;;;;;;7.78;1.80;;;13.90;99.90;;;;;;5030074;28;20206;-69
2022/09/04 09:11:54;;;;;;;5.75;1.98;;;13.90;99.90;;;;;;5033590;28;20299;-69
2022/09/04 09:14:56;;;;;;;7.68;2.60;;;13.90;99.90;;;;;;4991390;28;20204;-71
2022/09/04 09:17:39;;;;;;;7.72;2.45;;;13.90;99.90;;;;;;4987425;28;20203;-69
2022/09/04 09:20:28;;;;;;;11.55;2.90;;;13.90;99.90;;;;;;5027980;28;20206;-69
2022/09/04 09:23:40;;;;;;;7.85;2.45;;;13.90;99.90;;;;;;5035629;28;20597;-69
2022/09/04 09:26:30;;;;;;;6.35;2.30;;;13.90;99.90;;;;;;4991662;28;20226;-69
2022/09/04 09:29:48;;;;;;;6.70;2.40;;;13.90;99.90;;;;;;5052958;28;20692;-69
2022/09/04 09:32:57;;;;;;;4.88;2.05;;;13.90;99.90;;;;;;5029090;28;20551;-69
2022/09/04 09:35:56;;;;;;;7.45;2.35;;;13.80;99.90;;;;;;5048693;28;20214;-69
2022/09/04 09:38:58;;;;;;;12.43;2.28;;;13.80;99.90;;;;;;5045356;28;20312;-68
2022/09/04 09:42:06;;;;;;;6.00;1.90;;;13.80;99.90;;;;;;5048823;28;20186;-69
2022/09/04 09:45:05;;;;;;;7.28;1.95;;;13.80;99.90;;;;;;5033030;28;20194;-69
2022/09/04 09:48:09;;;;;;;9.02;1.80;;;13.80;99.90;;;;;;5032865;28;20197;-69
2022/09/04 09:51:17;;;;;;;5.55;1.67;;;13.80;99.90;;;;;;5033112;28;20218;-69
2022/09/04 09:54:25;;;;;;;6.47;1.88;;;13.80;99.90;;;;;;5037899;28;20189;-69
2022/09/04 09:57:28;;;;;;;6.78;1.80;;;13.70;99.90;;;;;;5050260;28;20568;-71
2022/09/04 10:00:16;;;;;;;9.70;2.15;;;13.70;99.90;;;;;;5056397;28;20200;-69
2022/09/04 10:03:23;;;;;;;7.05;2.33;;;13.70;99.90;;;;;;5056376;28;20196;-69
2022/09/04 10:06:19;;;;;;;6.90;2.10;;;13.60;99.90;;;;;;5056316;28;20212;-69
2022/09/04 10:09:28;;;;;;;6.63;2.20;;;13.60;99.90;;;;;;5056244;28;20202;-69
2022/09/04 10:12:40;;;;;;;3.92;1.80;;;13.60;99.90;;;;;;5056019;28;20200;-69
2022/09/04 10:15:51;;;;;;;6.63;2.00;;;13.50;99.90;;;;;;5049285;28;20572;-69
2022/09/04 10:19:00;;;;;;;7.97;1.95;;;13.40;99.90;;;;;;5056117;28;20205;-69
2022/09/04 10:22:26;;;;;;;3.38;1.50;;;13.30;99.90;;;;;;5038379;28;20206;-68
2022/09/04 10:25:31;;;;;;;6.65;2.00;;;13.20;99.90;;;;;;5036127;28;20213;-70
2022/09/04 10:28:33;;;;;;;5.10;1.65;;;13.20;99.90;;;;;;5051155;28;20193;-69
2022/09/04 10:31:44;;;;;;;5.32;1.58;;;13.10;99.90;;;;;;5052766;28;20704;-69
2022/09/04 10:34:37;;;;;;;4.80;1.80;;;13.10;99.90;;;;;;5041020;28;20602;-69
2022/09/04 10:37:24;;;;;;;4.75;1.52;;;13.00;99.90;;;;;;5041407;28;20218;-69
2022/09/04 10:43:09;;;;;;;4.90;1.45;;;13.00;99.90;;;;;;5040211;28;20664;-69
2022/09/04 10:45:41;;;;;;;5.70;1.73;;;13.00;99.90;;;;;;5035757;28;20194;-69
2022/09/04 10:48:55;;;;;;;4.07;1.63;;;12.90;99.90;;;;;;5035629;28;20195;-68
2022/09/04 10:51:48;;;;;;;5.70;1.52;;;12.90;99.90;;;;;;5035468;28;20233;-69
2022/09/04 10:54:54;;;;;;;4.38;1.30;;;12.80;99.90;;;;;;5045062;28;20276;-68
2022/09/04 10:57:42;;;;;;;5.35;1.60;;;12.80;99.90;;;;;;5045857;28;20212;-69
2022/09/04 11:00:17;;;;;;;5.55;1.40;;;12.80;99.90;;;;;;5055357;28;20559;-69
2022/09/04 11:03:26;;;;;;;3.53;1.30;;;12.80;99.90;;;;;;5055198;28;20193;-69
2022/09/04 11:06:34;;;;;;;4.22;1.70;;;12.70;99.90;;;;;;5054139;28;20657;-71
2022/09/04 11:09:40;;;;;;;4.13;1.40;;;12.60;99.90;;;;;;5054814;28;20209;-69
2022/09/04 11:12:33;;;;;;;3.15;1.58;;;12.60;99.90;;;;;;5055056;28;20678;-69
2022/09/04 11:15:33;;;;;;;3.47;1.63;;;12.60;99.90;;;;;;5055064;28;20194;-71
2022/09/04 11:18:44;;;;;;;6.97;1.83;;;12.60;99.90;;;;;;5054961;28;20277;-70
2022/09/04 11:22:03;;;;;;;5.70;1.88;;;12.60;99.90;;;;;;5054794;28;20279;-69
2022/09/04 11:25:22;;;;;;;4.65;2.00;;;12.50;99.90;;;;;;5054483;28;20189;-70
2022/09/04 11:28:39;;;;;;;6.07;2.00;;;12.50;99.90;;;;;;5054762;28;20285;-69
2022/09/04 11:31:38;;;;;;;4.53;1.80;;;12.40;99.90;;;;;;5042312;28;20301;-70
2022/09/04 11:34:37;;;;;;;4.25;1.60;;;12.40;99.90;;;;;;5042455;28;20222;-69
2022/09/04 11:37:34;;;;;;;5.07;1.80;;;12.40;99.90;;;;;;5036273;28;20218;-69
2022/09/04 11:40:34;;;;;;;5.93;1.42;;;12.40;99.90;;;;;;5048007;28;20240;-70
2022/09/04 11:43:27;;;;;;;3.20;1.27;;;12.40;99.90;;;;;;5045331;28;20187;-70
2022/09/04 11:46:30;;;;;;;4.32;1.40;;;12.30;99.90;;;;;;5041077;28;20194;-69
2022/09/04 11:49:30;;;;;;;4.40;1.30;;;12.20;99.90;;;;;;5043685;28;20197;-69
2022/09/04 11:52:12;;;;;;;3.88;1.50;;;12.30;99.90;;;;;;5043962;28;20200;-70
2022/09/04 11:55:01;;;;;;;3.40;1.50;;;12.30;99.90;;;;;;5044497;28;20200;-70
2022/09/04 11:57:44;;;;;;;5.13;1.60;;;12.30;99.90;;;;;;5050570;28;20658;-70
2022/09/04 12:00:16;;;;;;;5.15;1.40;;;12.30;99.90;;;;;;5043578;28;20701;-69
2022/09/04 12:03:37;;;;;;;3.70;1.35;;;12.30;99.90;;;;;;5042798;28;20183;-69
2022/09/04 12:06:33;;;;;;;1.90;1.00;;;12.30;99.90;;;;;;5022476;28;20193;-69
2022/09/04 12:09:47;;;;;;;5.18;1.30;;;12.30;99.90;;;;;;5043256;28;20645;-70
2022/09/04 12:12:57;;;;;;;4.35;1.70;;;12.30;99.90;;;;;;5007409;28;20558;-69
2022/09/04 12:16:15;;;;;;;3.08;1.23;;;12.30;99.90;;;;;;5022021;28;20205;-70
2022/09/04 12:19:14;;;;;;;2.75;1.80;;;12.40;99.90;;;;;;4953495;28;20197;-70
2022/09/04 12:22:18;;;;;;;6.63;1.40;;;12.30;99.90;;;;;;5033029;28;20296;-69
2022/09/04 12:25:18;;;;;;;5.18;1.50;;;12.30;99.90;;;;;;5034147;28;20206;-69
2022/09/04 12:28:40;;;;;;;4.20;1.55;;;12.20;99.90;;;;;;5033818;28;20552;-68
2022/09/04 12:31:32;;;;;;;2.33;1.40;;;12.20;99.90;;;;;;5029551;28;20270;-68
2022/09/04 12:34:31;;;;;;;3.55;1.23;;;12.10;99.90;;;;;;5053519;28;20548;-68
2022/09/04 12:37:42;;;;;;;2.72;1.10;;;12.10;99.90;;;;;;5038598;28;20240;-69
2022/09/04 12:40:34;;;;;;;2.17;1.00;;;12.10;99.90;;;;;;5052998;28;20267;-68
2022/09/04 12:43:15;;;;;;;3.85;1.23;;;12.00;99.90;;;;;;5028318;28;20202;-69
2022/09/04 12:45:58;;;;;;;4.07;1.42;;;12.00;99.90;;;;;;5033554;28;20196;-68
2022/09/04 12:48:38;;;;;;;2.53;1.30;;;12.00;99.90;;;;;;5033530;28;20200;-69
2022/09/04 12:51:15;;;;;;;6.68;1.25;;;12.00;99.90;;;;;;5033169;28;20680;-68
2022/09/04 12:54:01;;;;;;;2.75;1.42;;;12.00;99.90;;;;;;5038976;28;20719;-69
2022/09/04 12:56:46;;;;;;;3.90;1.50;;;11.90;99.90;;;;;;5053247;28;20194;-68
2022/09/04 12:59:40;;;;;;;3.20;1.40;;;11.90;99.90;;;;;;5053388;28;20189;-70
2022/09/04 13:02:23;;;;;;;3.22;1.40;;;11.90;99.90;;;;;;5053260;28;20189;-68
2022/09/04 13:05:03;;;;;;;6.88;1.42;;;11.90;99.90;;;;;;5053144;28;20266;-68
2022/09/04 13:07:46;;;;;;;4.32;1.40;;;11.90;99.90;;;;;;5053717;28;20716;-69
2022/09/04 13:10:31;;;;;;;5.57;1.48;;;11.80;99.90;;;;;;5053178;28;20634;-69
2022/09/04 13:13:14;;;;;;;3.95;1.23;;;11.80;99.90;;;;;;5053363;28;20608;-70
2022/09/04 13:15:56;;;;;;;4.53;1.73;;;11.70;99.90;;;;;;5053567;28;20197;-71
2022/09/04 13:18:50;;;;;;;5.75;1.45;;;11.70;99.90;;;;;;5044149;28;20709;-70
2022/09/04 13:21:31;;;;;;;5.38;1.75;;;11.70;99.90;;;;;;5040599;28;20197;-71
2022/09/04 13:24:26;;;;;;;3.83;1.20;;;11.70;99.90;;;;;;5046700;28;20204;-68
2022/09/04 13:27:25;;;;;;;3.42;1.35;;;11.60;99.90;;;;;;5045365;28;20197;-70
2022/09/04 13:30:06;;;;;;;4.13;1.40;;;11.60;99.90;;;;;;5040074;28;20197;-71
2022/09/04 13:32:55;;;;;;;3.72;1.45;;;11.60;99.90;;;;;;5044296;28;20187;-69
2022/09/04 13:35:54;;;;;;;3.63;1.17;;;11.50;99.90;;;;;;5033467;28;20219;-71
2022/09/04 13:38:56;;;;;;;4.43;1.30;;;11.50;99.90;;;;;;5043524;28;20280;-71
2022/09/04 13:41:51;;;;;;;3.60;1.52;;;11.50;99.90;;;;;;5042931;28;20655;-71
2022/09/04 13:44:58;;;;;;;5.00;1.17;;;11.40;99.90;;;;;;5037319;28;20202;-71
2022/09/04 13:47:32;;;;;;;3.95;1.60;;;11.50;99.90;;;;;;5046995;28;20201;-72
2022/09/04 13:50:10;;;;;;;4.88;1.88;;;11.40;99.90;;;;;;5046062;28;20196;-70
2022/09/04 13:52:51;;;;;;;4.05;1.33;;;11.40;99.90;;;;;;5050719;28;20186;-71
2022/09/04 13:55:25;;;;;;;3.92;1.10;;;11.40;99.90;;;;;;5042974;28;20613;-71
2022/09/04 13:58:02;;;;;;;3.33;1.20;;;11.50;99.90;;;;;;5049548;28;20186;-71
2022/09/04 14:00:36;;;;;;;2.78;1.00;;;11.50;99.90;;;;;;5045837;28;20699;-71
2022/09/04 14:03:12;;;;;;;3.60;1.02;;;11.50;99.90;;;;;;5046101;28;20638;-71
2022/09/04 14:05:45;;;;;;;3.70;1.20;;;11.50;99.90;;;;;;5040543;28;20200;-72
2022/09/04 14:08:22;;;;;;;5.13;1.10;;;11.50;99.90;;;;;;5040943;28;20194;-72
2022/09/04 14:11:14;;;;;;;3.60;1.30;;;11.50;99.90;;;;;;5040291;28;20220;-71
2022/09/04 14:14:13;;;;;;;2.67;1.00;;;11.40;99.90;;;;;;5040752;28;20658;-72
2022/09/04 14:16:44;;;;;;;3.53;1.10;;;11.40;99.90;;;;;;5048438;28;20224;-71
2022/09/04 14:19:42;;;;;;;3.63;1.13;;;11.40;99.90;;;;;;5046663;28;20189;-71
2022/09/04 14:22:38;;;;;;;4.57;1.13;;;11.40;99.90;;;;;;5042830;28;20198;-72
2022/09/04 14:25:19;;;;;;;4.00;1.13;;;11.30;99.90;;;;;;5050573;28;20194;-69
2022/09/04 14:28:02;;;;;;;4.28;1.10;;;11.30;99.90;;;;;;5043913;28;20192;-69
2022/09/04 14:30:38;;;;;;;4.50;1.10;;;11.30;99.90;;;;;;5049734;28;20209;-71
2022/09/04 14:33:24;;;;;;;7.68;1.63;;;11.30;99.90;;;;;;5050006;28;20182;-71
2022/09/04 14:36:07;;;;;;;4.72;1.20;;;11.30;99.90;;;;;;5038924;28;20213;-71
2022/09/04 14:39:06;;;;;;;3.25;1.30;;;11.30;99.90;;;;;;5043971;28;20230;-71
2022/09/04 14:41:53;;;;;;;3.47;1.20;;;11.20;99.90;;;;;;5033777;28;20661;-71
2022/09/04 14:44:41;;;;;;;2.25;1.10;;;11.20;99.90;;;;;;5043376;28;20285;-71
2022/09/04 14:47:24;;;;;;;2.67;1.10;;;11.20;99.90;;;;;;5045635;28;20186;-72